Terminal Aerodrome Forecast
Issued by NWS

Home | Current Version | Previous Version | Text Only | Print | Product List | Glossary On
Versions: 1 2 3 4 5 6 7 8 9 10 11 12 13
000
FTUS43 KMPX 281746
TAFRNH
TAF
KRNH 281746Z 2818/2918 16011G19KT P6SM -SHRA BKN015 BKN060
     FM281930 18012G20KT P6SM SCT025 BKN100
     FM282300 23014G22KT P6SM VCTS BKN040CB
      TEMPO 2900/2902 2SM -TSRA BKN020CB
     FM290200 26012G18KT P6SM BKN060
     FM290600 27011KT P6SM OVC012
     FM291400 30012G20KT P6SM BKN015=

USA.gov is the U.S. government's official web portal to all federal, state and local government web resources and services.